createdAt,value
2022-08-03T00:01:48.874Z,2.70
2022-08-03T00:04:15.275Z,2.73
2022-08-03T00:06:41.841Z,2.77
2022-08-03T00:09:08.304Z,2.80
2022-08-03T00:11:35.126Z,3.10
2022-08-03T00:14:01.641Z,3.00
2022-08-03T00:16:28.147Z,3.00
2022-08-03T00:18:54.554Z,2.80
2022-08-03T00:21:20.957Z,2.87
2022-08-03T00:23:52.056Z,2.73
2022-08-03T00:26:19.952Z,3.50
2022-08-03T00:28:46.341Z,3.07
2022-08-03T00:31:13.604Z,3.13
2022-08-03T00:33:59.364Z,3.50
2022-08-03T00:36:26.821Z,3.23
2022-08-03T00:38:53.236Z,3.40
2022-08-03T00:41:19.652Z,3.03
2022-08-03T00:43:47.400Z,3.03
2022-08-03T00:46:18.995Z,3.13
2022-08-03T00:48:48.422Z,3.60
2022-08-03T00:51:14.937Z,3.20
2022-08-03T00:53:41.340Z,3.30
2022-08-03T00:56:07.775Z,3.47
2022-08-03T00:58:34.179Z,3.40
2022-08-03T01:01:00.697Z,3.47
2022-08-03T01:03:27.225Z,3.20
2022-08-03T01:06:00.572Z,3.70
2022-08-03T01:08:26.971Z,3.33
2022-08-03T01:10:53.358Z,3.30
2022-08-03T01:14:00.326Z,3.43
2022-08-03T01:16:36.895Z,3.50
2022-08-03T01:19:18.636Z,3.10
2022-08-03T01:21:55.988Z,3.63
2022-08-03T01:24:43.674Z,3.40
2022-08-03T01:27:14.659Z,3.10
2022-08-03T01:29:41.020Z,3.40
2022-08-03T01:32:59.818Z,3.40
2022-08-03T01:35:47.998Z,3.60
2022-08-03T01:38:18.191Z,3.57
2022-08-03T01:40:46.947Z,3.50
2022-08-03T01:44:28.275Z,3.50
2022-08-03T01:46:04.178Z,3.60
2022-08-03T01:48:31.705Z,3.50
2022-08-03T01:50:59.432Z,3.60
2022-08-03T01:53:26.466Z,3.30
2022-08-03T01:55:54.246Z,3.13
2022-08-03T01:58:21.695Z,3.73
2022-08-03T02:00:50.113Z,3.80
2022-08-03T02:03:16.851Z,3.90
2022-08-03T02:05:44.978Z,3.57
2022-08-03T02:08:13.295Z,3.93
2022-08-03T02:10:41.317Z,3.80
2022-08-03T02:13:08.561Z,3.07
2022-08-03T02:15:36.916Z,3.90
2022-08-03T02:18:04.939Z,3.83
2022-08-03T02:20:33.056Z,3.87
2022-08-03T02:22:59.773Z,3.60
2022-08-03T02:25:26.297Z,4.03
2022-08-03T02:27:56.377Z,3.63
2022-08-03T02:30:27.164Z,3.97
2022-08-03T02:32:55.269Z,3.50
2022-08-03T02:35:23.136Z,4.00
2022-08-03T02:37:51.949Z,3.70
2022-08-03T02:40:20.307Z,4.10
2022-08-03T02:42:47.461Z,3.80
2022-08-03T02:45:15.590Z,3.90
2022-08-03T02:47:53.552Z,3.97
2022-08-03T02:50:22.285Z,4.03
2022-08-03T02:52:49.603Z,3.93
2022-08-03T02:55:16.304Z,4.10
2022-08-03T02:57:44.679Z,3.97
2022-08-03T03:00:11.344Z,4.10
2022-08-03T03:02:38.069Z,3.93
2022-08-03T03:05:51.720Z,4.27
2022-08-03T03:07:53.193Z,3.63
2022-08-03T03:10:22.284Z,3.83
2022-08-03T03:12:51.289Z,4.10
2022-08-03T03:15:17.877Z,4.00
2022-08-03T03:17:44.332Z,4.37
2022-08-03T03:20:11.260Z,4.13
2022-08-03T03:22:37.986Z,4.00
2022-08-03T03:25:06.953Z,4.07
2022-08-03T03:27:34.056Z,3.97
2022-08-03T03:30:00.527Z,3.83
2022-08-03T03:32:27.851Z,4.30
2022-08-03T03:34:55.569Z,3.87
2022-08-03T03:37:22.206Z,3.87
2022-08-03T03:39:48.600Z,3.67
2022-08-03T03:42:15.469Z,3.67
2022-08-03T03:44:42.069Z,4.20
2022-08-03T03:47:08.576Z,4.00
2022-08-03T03:49:36.121Z,4.30
2022-08-03T03:52:02.692Z,4.00
2022-08-03T03:54:39.512Z,4.30
2022-08-03T03:57:05.924Z,4.57
2022-08-03T03:59:32.320Z,4.00
2022-08-03T04:02:02.865Z,4.43
2022-08-03T04:04:47.741Z,4.33
2022-08-03T04:07:33.136Z,4.17
2022-08-03T04:10:18.435Z,4.30
2022-08-03T04:12:50.285Z,4.10
2022-08-03T04:15:18.360Z,4.37
2022-08-03T04:17:46.113Z,4.50
2022-08-03T04:20:13.190Z,4.50
2022-08-03T04:22:40.293Z,4.30
2022-08-03T04:25:08.974Z,4.43
2022-08-03T04:27:37.742Z,4.40
2022-08-03T04:30:06.108Z,4.53
2022-08-03T04:32:33.297Z,4.80
2022-08-03T04:34:59.870Z,4.87
2022-08-03T04:37:35.641Z,4.20
2022-08-03T04:40:02.948Z,4.40
2022-08-03T04:42:31.179Z,4.63
2022-08-03T04:45:01.425Z,4.57
2022-08-03T04:47:29.076Z,4.50
2022-08-03T04:49:55.685Z,4.67
2022-08-03T04:52:22.182Z,4.17
2022-08-03T04:54:50.901Z,3.90
2022-08-03T04:57:22.558Z,4.60
2022-08-03T04:59:54.668Z,4.50
2022-08-03T05:02:24.558Z,4.40
2022-08-03T05:04:51.010Z,4.23
2022-08-03T05:07:20.491Z,4.30
2022-08-03T05:09:52.729Z,4.60
2022-08-03T05:12:24.161Z,3.97
2022-08-03T05:14:50.531Z,3.60
2022-08-03T05:17:16.931Z,3.60
2022-08-03T05:19:43.754Z,3.60
2022-08-03T05:22:10.548Z,4.33
2022-08-03T05:24:36.980Z,3.40
2022-08-03T05:27:03.373Z,3.50
2022-08-03T05:29:29.742Z,3.30
2022-08-03T05:31:56.237Z,3.20
2022-08-03T05:34:22.727Z,3.33
2022-08-03T05:36:49.145Z,3.43
2022-08-03T05:39:15.537Z,3.00
2022-08-03T05:41:41.908Z,3.23
2022-08-03T05:44:08.394Z,3.70
2022-08-03T05:46:34.775Z,3.37
2022-08-03T05:49:01.221Z,3.37
2022-08-03T05:51:28.858Z,3.03
2022-08-03T05:53:55.303Z,3.00
2022-08-03T05:56:22.152Z,3.30
2022-08-03T05:58:48.553Z,3.60
2022-08-03T06:01:15.460Z,3.30
2022-08-03T06:03:41.925Z,3.37
2022-08-03T06:06:08.331Z,3.90
2022-08-03T06:08:35.190Z,4.40
2022-08-03T06:11:01.567Z,3.93
2022-08-03T06:13:28.105Z,4.93
2022-08-03T06:15:54.463Z,4.50
2022-08-03T06:18:20.947Z,4.93
2022-08-03T06:20:49.394Z,5.30
2022-08-03T06:23:17.775Z,5.70
2022-08-03T06:25:45.275Z,5.37
2022-08-03T06:28:35.397Z,4.90
2022-08-03T06:31:00.426Z,5.30
2022-08-03T06:34:31.135Z,5.00
2022-08-03T06:36:13.214Z,4.23
2022-08-03T06:38:39.738Z,4.23
2022-08-03T06:41:06.156Z,4.97
2022-08-03T06:43:35.854Z,4.40
2022-08-03T06:46:02.416Z,3.77
2022-08-03T06:48:28.961Z,4.27
2022-08-03T06:50:55.361Z,4.00
2022-08-03T06:53:22.255Z,4.27
2022-08-03T06:55:53.847Z,3.70
2022-08-03T06:58:20.411Z,3.90
2022-08-03T07:00:46.774Z,3.53
2022-08-03T07:03:13.152Z,3.53
2022-08-03T07:05:39.736Z,3.50
2022-08-03T07:08:06.174Z,3.40
2022-08-03T07:10:32.613Z,3.73
2022-08-03T07:12:58.999Z,3.33
2022-08-03T07:15:55.877Z,3.67
2022-08-03T07:18:12.214Z,3.23
2022-08-03T07:20:38.603Z,2.80
2022-08-03T07:23:04.963Z,2.90
2022-08-03T07:25:31.408Z,2.57
2022-08-03T07:27:57.858Z,2.40
2022-08-03T07:30:24.701Z,2.80
2022-08-03T07:32:51.209Z,2.40
2022-08-03T07:35:25.338Z,2.53
2022-08-03T07:37:54.381Z,2.70
2022-08-03T07:40:22.061Z,2.73
2022-08-03T07:42:48.499Z,2.37
2022-08-03T07:45:19.682Z,2.87
2022-08-03T07:47:46.245Z,2.70
2022-08-03T07:50:20.219Z,2.60
2022-08-03T07:52:50.073Z,2.45
2022-08-03T07:55:17.517Z,2.47
2022-08-03T07:57:43.994Z,2.20
2022-08-03T08:00:17.811Z,2.42
2022-08-03T08:02:44.309Z,2.05
2022-08-03T08:05:11.038Z,2.35
2022-08-03T08:07:38.269Z,2.10
2022-08-03T08:10:05.759Z,1.90
2022-08-03T08:12:32.134Z,2.05
2022-08-03T08:14:58.559Z,2.00
2022-08-03T08:17:24.949Z,1.80
2022-08-03T08:19:53.525Z,1.95
2022-08-03T08:22:23.468Z,1.65
2022-08-03T08:24:57.369Z,1.90
2022-08-03T08:27:23.729Z,1.80
2022-08-03T08:29:55.141Z,1.63
2022-08-03T08:32:22.965Z,1.70
2022-08-03T08:34:49.353Z,1.70
2022-08-03T08:37:15.722Z,1.83
2022-08-03T08:39:42.145Z,1.67
2022-08-03T08:42:09.797Z,1.48
2022-08-03T08:44:36.218Z,1.55
2022-08-03T08:47:02.931Z,1.60
2022-08-03T08:49:29.638Z,1.60
2022-08-03T08:52:00.741Z,1.55
2022-08-03T08:54:29.175Z,1.77
2022-08-03T08:56:56.016Z,1.67
2022-08-03T08:59:22.832Z,1.60
2022-08-03T09:01:49.236Z,1.80
2022-08-03T09:04:15.874Z,2.00
2022-08-03T09:06:53.747Z,1.80
2022-08-03T09:10:10.452Z,1.85
2022-08-03T09:12:40.647Z,1.98
2022-08-03T09:15:17.233Z,1.80
2022-08-03T09:17:46.517Z,1.80
2022-08-03T09:20:19.095Z,1.63
2022-08-03T09:22:56.328Z,1.65
2022-08-03T09:25:33.509Z,1.83
2022-08-03T09:28:04.508Z,1.95
2022-08-03T09:30:34.424Z,1.60
2022-08-03T09:33:21.808Z,1.60
2022-08-03T09:35:53.963Z,1.63
2022-08-03T09:38:26.476Z,1.85
2022-08-03T09:40:58.871Z,1.90
2022-08-03T09:43:27.408Z,1.70
2022-08-03T09:46:02.426Z,1.90
2022-08-03T09:48:29.640Z,1.80
2022-08-03T09:51:13.627Z,1.90
2022-08-03T09:53:59.308Z,1.83
2022-08-03T09:56:39.085Z,1.67
2022-08-03T09:59:05.514Z,1.85
2022-08-03T10:01:35.966Z,1.55
2022-08-03T10:04:04.053Z,1.60
2022-08-03T10:06:31.587Z,1.50
2022-08-03T10:09:11.621Z,1.50
2022-08-03T10:11:41.842Z,1.52
2022-08-03T10:14:09.997Z,1.52
2022-08-03T10:16:37.388Z,2.03
2022-08-03T10:19:04.704Z,1.52
2022-08-03T10:21:32.793Z,1.70
2022-08-03T10:23:59.654Z,1.60
2022-08-03T10:26:27.252Z,1.63
2022-08-03T10:28:54.156Z,1.40
2022-08-03T10:31:22.214Z,1.60
2022-08-03T10:33:53.146Z,1.40
2022-08-03T10:36:23.965Z,1.60
2022-08-03T10:38:54.389Z,1.25
2022-08-03T10:41:21.681Z,1.77
2022-08-03T10:43:55.341Z,1.80
2022-08-03T10:46:21.950Z,1.77
2022-08-03T10:48:52.760Z,1.70
2022-08-03T10:51:20.013Z,1.60
2022-08-03T10:53:55.569Z,1.20
2022-08-03T10:56:53.406Z,1.70
2022-08-03T10:59:39.655Z,1.70
2022-08-03T11:02:09.792Z,1.70
2022-08-03T11:04:36.167Z,1.50
2022-08-03T11:07:19.518Z,1.48
2022-08-03T11:09:48.464Z,1.63
2022-08-03T11:12:21.002Z,1.75
2022-08-03T11:14:48.298Z,1.75
2022-08-03T11:17:14.707Z,1.50
2022-08-03T11:19:57.649Z,1.77
2022-08-03T11:22:25.372Z,2.00
2022-08-03T11:24:54.071Z,1.60
2022-08-03T11:27:20.810Z,1.90
2022-08-03T11:29:54.248Z,1.48
2022-08-03T11:32:46.817Z,1.30
2022-08-03T11:35:21.920Z,1.58
2022-08-03T11:38:03.387Z,1.50
2022-08-03T11:40:45.609Z,1.80
2022-08-03T11:43:31.221Z,1.80
2022-08-03T11:45:59.553Z,1.77
2022-08-03T11:48:35.178Z,1.88
2022-08-03T11:51:02.182Z,1.77
2022-08-03T11:53:28.731Z,1.70
2022-08-03T11:55:58.518Z,1.75
2022-08-03T11:59:10.817Z,1.83
2022-08-03T12:01:12.509Z,1.85
2022-08-03T12:03:39.011Z,1.83
2022-08-03T12:06:09.214Z,1.92
2022-08-03T12:08:35.704Z,1.95
2022-08-03T12:11:04.441Z,1.88
2022-08-03T12:14:33.035Z,1.60
2022-08-03T12:16:29.197Z,1.60
2022-08-03T12:18:59.439Z,1.50
2022-08-03T12:21:25.922Z,1.67
2022-08-03T12:23:56.511Z,1.48
2022-08-03T12:26:22.909Z,1.50
2022-08-03T12:28:50.111Z,1.30
2022-08-03T12:31:16.986Z,1.52
2022-08-03T12:33:58.999Z,1.30
2022-08-03T12:36:26.038Z,1.40
2022-08-03T12:38:56.853Z,1.20
2022-08-03T12:41:30.838Z,1.40
2022-08-03T12:43:57.285Z,1.42
2022-08-03T12:46:29.110Z,1.35
2022-08-03T12:48:58.291Z,1.30
2022-08-03T12:51:27.297Z,1.30
2022-08-03T12:53:54.445Z,1.33
2022-08-03T12:56:20.868Z,1.50
2022-08-03T12:58:53.313Z,1.48
2022-08-03T13:01:22.475Z,1.30
2022-08-03T13:03:52.877Z,1.58
2022-08-03T13:06:26.472Z,1.42
2022-08-03T13:09:03.779Z,1.40
2022-08-03T13:11:55.693Z,1.20
2022-08-03T13:14:20.237Z,1.35
2022-08-03T13:16:47.374Z,1.65
2022-08-03T13:19:15.915Z,1.50
2022-08-03T13:22:01.659Z,1.60
2022-08-03T13:24:29.551Z,1.63
2022-08-03T13:26:57.036Z,1.80
2022-08-03T13:29:23.499Z,1.75
2022-08-03T13:31:51.122Z,1.90
2022-08-03T13:34:23.007Z,1.70
2022-08-03T13:37:08.299Z,1.60
2022-08-03T13:39:35.190Z,1.80
2022-08-03T13:42:21.677Z,1.88
2022-08-03T13:44:48.037Z,2.20
2022-08-03T13:47:14.486Z,2.00
2022-08-03T13:49:40.889Z,1.70
2022-08-03T13:52:07.460Z,1.77
2022-08-03T13:54:33.935Z,1.75
2022-08-03T13:58:03.970Z,1.95
2022-08-03T13:59:46.783Z,1.90
2022-08-03T14:02:13.332Z,1.80
2022-08-03T14:04:39.748Z,1.80
2022-08-03T14:07:06.152Z,1.85
2022-08-03T14:09:32.528Z,1.75
2022-08-03T14:12:06.896Z,1.77
2022-08-03T14:14:35.007Z,2.00
2022-08-03T14:17:01.389Z,1.90
2022-08-03T14:19:28.868Z,2.33
2022-08-03T14:22:06.121Z,2.00
2022-08-03T14:24:33.114Z,1.90
2022-08-03T14:27:07.168Z,2.00
2022-08-03T14:29:35.793Z,2.10
2022-08-03T14:32:09.519Z,2.10
2022-08-03T14:34:38.639Z,2.00
2022-08-03T14:37:05.032Z,2.00
2022-08-03T14:39:58.317Z,1.73
2022-08-03T14:42:17.796Z,1.88
2022-08-03T14:44:44.195Z,2.00
2022-08-03T14:47:10.782Z,2.40
2022-08-03T14:50:32.519Z,1.70
2022-08-03T14:52:24.298Z,1.88
2022-08-03T14:54:50.689Z,2.10
2022-08-03T14:57:17.191Z,2.53
2022-08-03T14:59:55.462Z,2.75
2022-08-03T15:02:24.422Z,2.15
2022-08-03T15:04:51.163Z,2.20
2022-08-03T15:07:17.830Z,1.98
2022-08-03T15:09:44.302Z,2.20
2022-08-03T15:12:10.680Z,2.05
2022-08-03T15:14:37.865Z,2.10
2022-08-03T15:17:04.606Z,1.98
2022-08-03T15:20:03.088Z,1.88
2022-08-03T15:22:20.632Z,2.45
2022-08-03T15:24:51.291Z,1.90
2022-08-03T15:27:17.910Z,1.88
2022-08-03T15:30:07.316Z,2.10
2022-08-03T15:32:30.805Z,2.00
2022-08-03T15:34:57.181Z,2.00
2022-08-03T15:37:25.615Z,1.90
2022-08-03T15:40:00.119Z,1.77
2022-08-03T15:42:30.446Z,2.00
2022-08-03T15:44:56.949Z,2.00
2022-08-03T15:47:23.328Z,1.92
2022-08-03T15:49:49.746Z,2.10
2022-08-03T15:52:16.143Z,1.90
2022-08-03T15:54:42.575Z,2.10
2022-08-03T15:57:09.011Z,1.80
2022-08-03T15:59:35.464Z,1.90
2022-08-03T16:02:01.992Z,1.90
2022-08-03T16:04:28.485Z,2.00
2022-08-03T16:06:54.849Z,2.05
2022-08-03T16:09:24.306Z,1.65
2022-08-03T16:12:14.437Z,1.63
2022-08-03T16:14:52.000Z,1.70
2022-08-03T16:17:19.234Z,1.98
2022-08-03T16:19:45.970Z,2.08
2022-08-03T16:22:12.831Z,1.90
2022-08-03T16:24:40.856Z,1.80
2022-08-03T16:27:17.292Z,1.70
2022-08-03T16:29:53.623Z,2.05
2022-08-03T16:32:19.988Z,1.70
2022-08-03T16:34:47.776Z,1.90
2022-08-03T16:37:37.177Z,1.80
2022-08-03T16:40:00.792Z,2.40
2022-08-03T16:42:27.155Z,2.05
2022-08-03T16:44:53.559Z,1.98
2022-08-03T16:47:21.865Z,1.90
2022-08-03T16:49:54.940Z,2.00
2022-08-03T16:52:23.196Z,1.88
2022-08-03T16:54:52.625Z,2.22
2022-08-03T16:57:56.480Z,1.73
2022-08-03T17:00:08.118Z,1.42
2022-08-03T17:02:35.273Z,1.90
2022-08-03T17:05:02.983Z,1.55
2022-08-03T17:07:30.389Z,1.63
2022-08-03T17:09:57.246Z,1.80
2022-08-03T17:12:25.954Z,2.05
2022-08-03T17:14:53.996Z,1.80
2022-08-03T17:17:29.831Z,1.42
2022-08-03T17:20:09.769Z,2.03
2022-08-03T17:22:39.135Z,1.90
2022-08-03T17:25:07.959Z,1.83
2022-08-03T17:28:48.176Z,2.28
2022-08-03T17:30:21.718Z,2.13
2022-08-03T17:32:57.100Z,1.85
2022-08-03T17:35:24.894Z,1.92
2022-08-03T17:38:05.200Z,2.20
2022-08-03T17:40:34.307Z,1.85
2022-08-03T17:43:00.797Z,2.03
2022-08-03T17:45:42.282Z,1.90
2022-08-03T17:48:18.571Z,1.75
2022-08-03T17:50:52.215Z,1.70
2022-08-03T17:53:24.313Z,1.90
2022-08-03T17:56:04.393Z,1.98
2022-08-03T17:58:38.265Z,2.13
2022-08-03T18:02:02.763Z,1.88
2022-08-03T18:04:13.683Z,2.08
2022-08-03T18:06:56.194Z,2.05
2022-08-03T18:10:03.313Z,3.38
2022-08-03T18:12:13.123Z,7.43
2022-08-03T18:14:42.579Z,4.53
2022-08-03T18:17:27.206Z,3.30
2022-08-03T18:20:32.333Z,2.58
2022-08-03T18:23:01.037Z,2.70
2022-08-03T18:25:42.297Z,2.33
2022-08-03T18:28:16.334Z,2.10
2022-08-03T18:30:53.562Z,2.22
2022-08-03T18:34:20.038Z,2.03
2022-08-03T18:36:09.384Z,2.33
2022-08-03T18:38:39.303Z,2.10
2022-08-03T18:41:15.598Z,2.03
2022-08-03T18:46:33.970Z,2.10
2022-08-03T18:49:29.947Z,2.50
2022-08-03T18:52:26.991Z,2.33
2022-08-03T18:55:02.572Z,2.70
2022-08-03T18:57:39.118Z,2.30
2022-08-03T19:00:10.439Z,2.60
2022-08-03T19:03:01.765Z,2.63
2022-08-03T19:05:40.079Z,2.37
2022-08-03T19:08:19.838Z,2.60
2022-08-03T19:11:00.607Z,2.67
2022-08-03T19:13:36.179Z,2.67
2022-08-03T19:16:03.490Z,2.40
2022-08-03T19:18:31.913Z,2.40
2022-08-03T19:20:59.451Z,2.40
2022-08-03T19:23:25.978Z,2.33
2022-08-03T19:25:58.246Z,2.63
2022-08-03T19:31:11.704Z,2.40
2022-08-03T19:33:57.455Z,2.43
2022-08-03T19:36:28.298Z,2.40
2022-08-03T19:38:58.509Z,2.10
2022-08-03T19:41:27.583Z,2.33
2022-08-03T19:43:59.341Z,2.10
2022-08-03T19:46:30.468Z,2.60
2022-08-03T19:49:14.681Z,2.10
2022-08-03T19:52:02.512Z,2.30
2022-08-03T19:54:35.277Z,2.50
2022-08-03T19:57:02.482Z,2.27
2022-08-03T19:59:33.382Z,1.90
2022-08-03T20:01:59.810Z,2.13
2022-08-03T20:04:26.197Z,2.77
2022-08-03T20:06:56.986Z,2.70
2022-08-03T20:09:23.941Z,2.40
2022-08-03T20:11:57.223Z,2.07
2022-08-03T20:14:26.549Z,2.20
2022-08-03T20:16:53.390Z,2.10
2022-08-03T20:19:20.014Z,2.00
2022-08-03T20:21:48.149Z,2.00
2022-08-03T20:24:27.098Z,2.00
2022-08-03T20:26:54.800Z,2.43
2022-08-03T20:30:05.289Z,2.60
2022-08-03T20:32:14.385Z,1.90
2022-08-03T20:34:40.997Z,2.50
2022-08-03T20:37:07.458Z,2.50
2022-08-03T20:39:38.632Z,2.40
2022-08-03T20:42:06.985Z,2.50
2022-08-03T20:44:36.250Z,2.13
2022-08-03T20:47:06.191Z,2.20
2022-08-03T20:49:46.146Z,2.07
2022-08-03T20:52:18.575Z,2.27
2022-08-03T20:54:46.178Z,2.00
2022-08-03T20:57:14.330Z,2.03
2022-08-03T20:59:50.599Z,2.40
2022-08-03T21:02:19.967Z,2.10
2022-08-03T21:04:55.940Z,2.07
2022-08-03T21:07:23.934Z,1.93
2022-08-03T21:09:52.551Z,2.20
2022-08-03T21:12:22.093Z,2.07
2022-08-03T21:12:59.026Z,2.17
2022-08-03T21:13:13.133Z,2.67
2022-08-03T21:15:00.120Z,1.80
2022-08-03T21:17:39.995Z,1.80
2022-08-03T21:20:08.363Z,1.80
2022-08-03T21:22:36.891Z,1.80
2022-08-03T21:25:08.503Z,2.00
2022-08-03T21:27:35.261Z,2.23
2022-08-03T21:30:03.154Z,2.30
2022-08-03T21:32:33.285Z,2.03
2022-08-03T21:35:00.112Z,1.80
2022-08-03T21:37:27.059Z,2.03
2022-08-03T21:39:54.689Z,2.20
2022-08-03T21:42:23.805Z,1.93
2022-08-03T21:44:51.522Z,1.73
2022-08-03T21:47:19.227Z,1.90
2022-08-03T21:50:07.567Z,2.10
2022-08-03T21:52:35.520Z,1.80
2022-08-03T21:55:05.616Z,1.90
2022-08-03T21:57:33.342Z,2.00
2022-08-03T22:00:07.465Z,1.90
2022-08-03T22:02:42.762Z,1.90
2022-08-03T22:05:09.550Z,2.10
2022-08-03T22:07:42.939Z,2.17
2022-08-03T22:10:10.074Z,2.20
2022-08-03T22:12:36.550Z,1.80
2022-08-03T22:15:04.289Z,1.70
2022-08-03T22:17:53.711Z,2.10
2022-08-03T22:20:19.259Z,2.00
2022-08-03T22:22:53.502Z,2.20
2022-08-03T22:25:24.245Z,2.40
2022-08-03T22:27:51.520Z,2.07
2022-08-03T22:30:18.575Z,2.00
2022-08-03T22:32:45.632Z,2.47
2022-08-03T22:35:13.203Z,2.40
2022-08-03T22:37:41.028Z,2.00
2022-08-03T22:40:07.769Z,2.00
2022-08-03T22:42:35.221Z,1.93
2022-08-03T22:45:02.084Z,1.80
2022-08-03T22:47:29.055Z,2.07
2022-08-03T22:50:32.729Z,2.20
2022-08-03T22:52:44.334Z,2.23
2022-08-03T22:55:11.788Z,2.10
2022-08-03T22:57:45.304Z,2.00
2022-08-03T23:00:22.278Z,2.20
2022-08-03T23:02:49.349Z,2.37
2022-08-03T23:06:00.913Z,2.30
2022-08-03T23:08:03.974Z,1.90
2022-08-03T23:10:31.318Z,2.23
2022-08-03T23:12:59.476Z,2.27
2022-08-03T23:15:29.331Z,2.07
2022-08-03T23:17:58.620Z,2.03
2022-08-03T23:20:26.498Z,1.93
2022-08-03T23:22:54.027Z,2.10
2022-08-03T23:25:21.881Z,2.23
2022-08-03T23:28:05.532Z,2.40
2022-08-03T23:30:34.378Z,1.90
2022-08-03T23:33:01.313Z,2.17
2022-08-03T23:36:28.935Z,2.27
2022-08-03T23:38:35.957Z,2.10
2022-08-03T23:41:03.378Z,2.40
2022-08-03T23:43:51.098Z,2.50
2022-08-03T23:46:19.595Z,2.00
2022-08-03T23:48:45.980Z,2.40
2022-08-03T23:51:24.588Z,2.73
2022-08-03T23:53:56.634Z,2.97
2022-08-03T23:56:37.499Z,2.40
2022-08-03T23:59:14.063Z,2.50
